Time;durP1;ratioP1;P1;durP2;ratioP2;P2;SDS_P1;SDS_P2;PMS_P1;PMS_P2;Temp;Humidity;BMP_temperature;BMP_pressure;BME280_temperature;BME280_humidity;BME280_pressure;Samples;Min_cycle;Max_cycle;Signal;HPM_P1;HPM_P2
2022/03/07 00:01:37;;;;;;;;;;;;;;;28.09;58.89;96771.36;589403;240;65376;-71
2022/03/07 00:04:05;;;;;;;;;;;;;;;28.08;58.96;96769.78;589407;240;68644;-73
2022/03/07 00:06:33;;;;;;;;;;;;;;;28.07;55.82;96773.61;589397;239;66659;-73
2022/03/07 00:09:00;;;;;;;;;;;;;;;28.07;60.58;96772.80;589477;240;63068;-73
2022/03/07 00:11:28;;;;;;;;;;;;;;;28.05;58.03;96770.44;589421;240;68300;-74
2022/03/07 00:13:56;;;;;;;;;;;;;;;28.04;59.43;96763.42;589463;240;68528;-73
2022/03/07 00:16:23;;;;;;;;;;;;;;;28.03;57.71;96763.77;589427;240;65345;-73
2022/03/07 00:18:51;;;;;;;;;;;;;;;28.03;56.38;96764.55;589448;240;68466;-73
2022/03/07 00:21:20;;;;;;;;;;;;;;;28.01;57.83;96768.69;589532;240;66324;-73
2022/03/07 00:23:48;;;;;;;;;;;;;;;28.01;56.56;96779.50;589444;240;65359;-73
2022/03/07 00:26:17;;;;;;;;;;;;;;;28.01;58.65;96766.78;589484;239;68336;-73
2022/03/07 00:28:45;;;;;;;;;;;;;;;27.98;57.63;96775.53;589443;240;66224;-74
2022/03/07 00:31:13;;;;;;;;;;;;;;;27.98;58.05;96769.34;589473;240;63102;-73
2022/03/07 00:33:43;;;;;;;;;;;;;;;27.98;56.29;96770.13;589456;240;68774;-73
2022/03/07 00:36:10;;;;;;;;;;;;;;;27.96;59.28;96769.66;589496;240;68618;-73
2022/03/07 00:38:38;;;;;;;;;;;;;;;27.94;58.95;96765.69;589427;240;65456;-74
2022/03/07 00:41:08;;;;;;;;;;;;;;;27.93;58.31;96758.71;589453;240;69092;-71
2022/03/07 00:43:36;;;;;;;;;;;;;;;27.94;55.84;96754.88;589381;240;69793;-71
2022/03/07 00:46:04;;;;;;;;;;;;;;;27.94;56.70;96752.19;589444;240;65437;-71
2022/03/07 00:48:32;;;;;;;;;;;;;;;27.93;56.30;96756.80;589476;238;66427;-71
2022/03/07 00:50:59;;;;;;;;;;;;;;;27.92;58.52;96760.63;589441;240;68649;-71
2022/03/07 00:53:27;;;;;;;;;;;;;;;27.91;57.93;96753.64;589433;240;65332;-71
2022/03/07 00:55:56;;;;;;;;;;;;;;;27.89;57.22;96758.57;589440;240;69152;-71
2022/03/07 00:58:24;;;;;;;;;;;;;;;27.91;57.97;96760.93;589451;240;69225;-71
2022/03/07 01:00:52;;;;;;;;;;;;;;;27.88;56.02;96765.06;589509;240;66190;-71
2022/03/07 01:03:19;;;;;;;;;;;;;;;27.86;58.91;96762.70;589454;240;68489;-71
2022/03/07 01:05:47;;;;;;;;;;;;;;;27.85;57.40;96765.71;589393;240;68750;-71
2022/03/07 01:08:15;;;;;;;;;;;;;;;27.83;56.30;96766.05;589408;240;65109;-73
2022/03/07 01:10:43;;;;;;;;;;;;;;;27.83;57.54;96763.35;589435;240;68904;-74
2022/03/07 01:13:11;;;;;;;;;;;;;;;27.83;56.13;96768.75;589484;240;68637;-73
2022/03/07 01:15:39;;;;;;;;;;;;;;;27.81;56.74;96770.19;589485;239;65176;-73
2022/03/07 01:18:06;;;;;;;;;;;;;;;27.81;58.82;96770.19;589439;240;68694;-73
2022/03/07 01:20:34;;;;;;;;;;;;;;;27.80;58.73;96769.40;589421;240;66620;-74
2022/03/07 01:23:02;;;;;;;;;;;;;;;27.79;56.98;96775.08;589437;240;65172;-73
2022/03/07 01:25:29;;;;;;;;;;;;;;;27.80;57.45;96773.98;589481;240;68755;-73
2022/03/07 01:27:57;;;;;;;;;;;;;;;27.77;56.24;96761.09;589471;240;68654;-73
2022/03/07 01:30:24;;;;;;;;;;;;;;;27.77;58.50;96763.80;589422;240;65374;-73
2022/03/07 01:32:57;;;;;;;;;;;;;;;27.75;60.77;96760.65;589382;240;69804;-73
2022/03/07 01:35:21;;;;;;;;;;;;;;;27.75;56.13;96760.65;589265;239;68500;-74
2022/03/07 01:37:49;;;;;;;;;;;;;;;27.74;59.12;96764.44;589427;239;65334;-74
2022/03/07 01:40:16;;;;;;;;;;;;;;;27.73;58.42;96757.47;589491;240;68666;-73
2022/03/07 01:42:43;;;;;;;;;;;;;;;27.72;56.65;96769.36;589362;240;68513;-73
2022/03/07 01:45:12;;;;;;;;;;;;;;;27.69;58.38;96770.80;588303;239;65331;-73
2022/03/07 01:47:40;;;;;;;;;;;;;;;27.67;57.90;96768.44;588316;241;68659;-73
2022/03/07 01:50:09;;;;;;;;;;;;;;;27.66;58.23;96763.34;588343;241;68303;-73
2022/03/07 01:52:37;;;;;;;;;;;;;;;27.66;59.00;96764.16;588298;241;63230;-74
2022/03/07 01:55:07;;;;;;;;;;;;;;;27.64;59.13;96766.38;588333;241;69208;-73
2022/03/07 01:57:37;;;;;;;;;;;;;;;27.63;59.48;96759.38;588345;239;45295;-73
2022/03/07 02:00:09;;;;;;;;;;;;;;;27.62;59.49;96763.20;588300;240;65386;-73
2022/03/07 02:02:38;;;;;;;;;;;;;;;27.62;59.68;96765.11;588465;240;45894;-73
2022/03/07 02:05:07;;;;;;;;;;;;;;;27.60;61.40;96765.42;588295;241;68685;-73
2022/03/07 02:07:34;;;;;;;;;;;;;;;27.59;60.83;96769.24;588301;240;65405;-72
2022/03/07 02:10:02;;;;;;;;;;;;;;;27.56;60.34;96764.48;588330;241;66482;-72
2022/03/07 02:12:30;;;;;;;;;;;;;;;27.57;59.66;96773.38;588319;241;69536;-72
2022/03/07 02:14:58;;;;;;;;;;;;;;;27.54;61.20;96769.41;588367;241;64957;-72
2022/03/07 02:17:25;;;;;;;;;;;;;;;27.52;58.37;96774.32;588389;241;65832;-72
2022/03/07 02:19:53;;;;;;;;;;;;;;;27.52;59.04;96771.63;588293;240;68957;-72
2022/03/07 02:22:22;;;;;;;;;;;;;;;27.52;60.50;96768.92;588331;241;63944;-72
2022/03/07 02:24:51;;;;;;;;;;;;;;;27.51;58.82;96777.36;588300;240;69373;-74
2022/03/07 02:27:18;;;;;;;;;;;;;;;27.50;57.70;96773.87;588317;241;66495;-74
2022/03/07 02:29:47;;;;;;;;;;;;;;;27.49;58.57;96769.56;588361;241;65895;-71
2022/03/07 02:32:16;;;;;;;;;;;;;;;27.48;59.21;96767.20;588449;239;46122;-72
2022/03/07 02:34:48;;;;;;;;;;;;;;;27.47;60.05;96771.78;588321;241;66111;-72
2022/03/07 02:37:17;;;;;;;;;;;;;;;27.44;60.07;96767.81;588297;241;65345;-72
2022/03/07 02:39:49;;;;;;;;;;;;;;;27.44;57.34;96775.13;588419;239;47222;-73
2022/03/07 02:42:17;;;;;;;;;;;;;;;27.44;61.16;96777.82;588357;241;66389;-73
2022/03/07 02:44:45;;;;;;;;;;;;;;;27.42;60.92;96774.67;586917;240;65454;-72
2022/03/07 02:47:16;;;;;;;;;;;;;;;27.41;59.00;96778.46;586642;242;66261;-72
2022/03/07 02:49:44;;;;;;;;;;;;;;;27.39;61.22;96770.70;586605;242;66413;-72
2022/03/07 02:52:12;;;;;;;;;;;;;;;27.38;61.06;96762.91;586670;242;65146;-72
2022/03/07 02:54:39;;;;;;;;;;;;;;;27.37;61.12;96772.13;586671;242;68738;-72
2022/03/07 02:57:07;;;;;;;;;;;;;;;27.38;60.91;96776.41;586691;242;68553;-72
2022/03/07 02:59:35;;;;;;;;;;;;;;;27.36;59.26;96770.52;586647;242;65285;-72
2022/03/07 03:02:03;;;;;;;;;;;;;;;27.35;60.70;96768.95;586664;242;68810;-73
2022/03/07 03:04:30;;;;;;;;;;;;;;;27.34;59.35;96770.07;586651;242;68331;-72
2022/03/07 03:06:59;;;;;;;;;;;;;;;27.33;60.56;96774.65;586645;242;65078;-72
2022/03/07 03:09:27;;;;;;;;;;;;;;;27.33;59.32;96768.47;586692;242;68658;-72
2022/03/07 03:11:54;;;;;;;;;;;;;;;27.33;59.22;96776.56;586614;242;68955;-72
2022/03/07 03:14:22;;;;;;;;;;;;;;;27.33;57.92;96779.26;586657;242;63214;-72
2022/03/07 03:16:49;;;;;;;;;;;;;;;27.32;57.15;96773.08;586642;242;68636;-72
2022/03/07 03:19:17;;;;;;;;;;;;;;;27.31;60.91;96779.59;586650;242;68746;-72
2022/03/07 03:21:44;;;;;;;;;;;;;;;27.32;59.06;96777.69;586693;242;65325;-72
2022/03/07 03:24:12;;;;;;;;;;;;;;;27.29;59.17;96770.23;586658;242;68589;-72
2022/03/07 03:26:39;;;;;;;;;;;;;;;27.29;59.98;96772.92;586643;242;66485;-72
2022/03/07 03:29:07;;;;;;;;;;;;;;;27.27;59.89;96775.14;586661;242;63929;-72
2022/03/07 03:31:34;;;;;;;;;;;;;;;27.26;59.84;96776.27;586640;242;68384;-72
2022/03/07 03:34:02;;;;;;;;;;;;;;;27.25;58.42;96774.66;586677;242;68490;-72
2022/03/07 03:36:29;;;;;;;;;;;;;;;27.23;60.22;96775.78;586686;242;65078;-72
2022/03/07 03:38:57;;;;;;;;;;;;;;;27.21;61.14;96767.20;586649;242;69044;-72
2022/03/07 03:41:24;;;;;;;;;;;;;;;27.22;59.09;96774.17;586636;242;68545;-72
2022/03/07 03:43:52;;;;;;;;;;;;;;;27.22;58.87;96778.78;587959;240;65090;-72
2022/03/07 03:46:19;;;;;;;;;;;;;;;27.20;58.77;96781.81;589418;240;68686;-73
2022/03/07 03:48:47;;;;;;;;;;;;;;;27.20;59.85;96779.11;589437;239;66479;-72
2022/03/07 03:51:15;;;;;;;;;;;;;;;27.18;58.14;96784.02;589424;240;65351;-72
2022/03/07 03:53:42;;;;;;;;;;;;;;;27.18;58.20;96783.23;589452;240;68731;-72
2022/03/07 03:56:09;;;;;;;;;;;;;;;27.17;58.84;96784.33;589463;240;68610;-72
2022/03/07 03:58:37;;;;;;;;;;;;;;;27.16;58.33;96780.84;589415;240;65229;-72
2022/03/07 04:01:04;;;;;;;;;;;;;;;27.14;61.37;96783.02;589464;240;68589;-72
2022/03/07 04:03:32;;;;;;;;;;;;;;;27.13;62.37;96776.05;589459;240;68607;-72
2022/03/07 04:05:59;;;;;;;;;;;;;;;27.09;58.90;96772.42;589443;240;64933;-72
2022/03/07 04:08:32;;;;;;;;;;;;;;;27.09;61.57;96775.12;589444;240;68597;-72
2022/03/07 04:11:02;;;;;;;;;;;;;;;27.08;61.86;96776.20;589392;240;68566;-72
2022/03/07 04:13:30;;;;;;;;;;;;;;;27.06;61.74;96773.03;589508;240;65577;-72
2022/03/07 04:15:57;;;;;;;;;;;;;;;27.05;61.51;96773.36;589459;239;69559;-72
2022/03/07 04:18:25;;;;;;;;;;;;;;;27.04;62.25;96777.97;589506;240;68003;-72
2022/03/07 04:20:52;;;;;;;;;;;;;;;27.01;62.48;96771.30;589460;240;63007;-72
2022/03/07 04:23:21;;;;;;;;;;;;;;;27.00;63.22;96780.48;589472;239;66168;-72
2022/03/07 04:25:48;;;;;;;;;;;;;;;27.00;63.11;96775.09;589418;240;68530;-71
2022/03/07 04:28:16;;;;;;;;;;;;;;;26.98;60.80;96773.81;589520;240;65307;-72
2022/03/07 04:30:44;;;;;;;;;;;;;;;26.98;62.77;96779.20;589439;240;68286;-72
2022/03/07 04:33:11;;;;;;;;;;;;;;;26.97;63.47;96772.23;589471;240;68295;-72
2022/03/07 04:35:39;;;;;;;;;;;;;;;26.97;64.90;96774.94;589465;240;63043;-72
2022/03/07 04:38:06;;;;;;;;;;;;;;;26.95;64.69;96772.54;589442;240;68419;-72
2022/03/07 04:40:34;;;;;;;;;;;;;;;26.90;61.15;96772.72;589489;240;68586;-72
2022/03/07 04:43:01;;;;;;;;;;;;;;;26.91;64.81;96770.81;589074;240;65482;-72
2022/03/07 04:45:29;;;;;;;;;;;;;;;26.90;64.64;96783.50;586682;242;68297;-72
2022/03/07 04:47:57;;;;;;;;;;;;;;;26.90;63.94;96779.98;586652;242;66649;-72
2022/03/07 04:50:24;;;;;;;;;;;;;;;26.89;63.55;96773.02;586649;242;62963;-72
2022/03/07 04:52:52;;;;;;;;;;;;;;;26.89;64.52;96778.41;586671;242;67715;-72
2022/03/07 04:55:20;;;;;;;;;;;;;;;26.86;63.84;96774.44;586668;242;68382;-72
2022/03/07 04:57:47;;;;;;;;;;;;;;;26.88;64.90;96776.84;586661;242;63033;-72
2022/03/07 05:00:16;;;;;;;;;;;;;;;26.86;61.56;96779.05;586658;242;68838;-72
2022/03/07 05:02:44;;;;;;;;;;;;;;;26.85;63.18;96778.25;586644;242;66574;-71
2022/03/07 05:05:11;;;;;;;;;;;;;;;26.82;63.84;96781.59;586690;242;63096;-72
2022/03/07 05:07:38;;;;;;;;;;;;;;;26.82;64.28;96783.47;586730;242;66438;-72
2022/03/07 05:10:07;;;;;;;;;;;;;;;26.81;64.63;96787.28;586672;242;66422;-72
2022/03/07 05:12:34;;;;;;;;;;;;;;;26.79;64.53;96785.70;586651;242;65540;-72
2022/03/07 05:15:02;;;;;;;;;;;;;;;26.78;64.44;96786.79;586666;242;68680;-72
2022/03/07 05:17:29;;;;;;;;;;;;;;;26.78;63.75;96792.19;586677;242;68546;-72
2022/03/07 05:19:57;;;;;;;;;;;;;;;26.78;65.33;96788.70;586685;242;65363;-72
2022/03/07 05:22:25;;;;;;;;;;;;;;;26.76;65.25;96791.73;586658;242;66443;-72
2022/03/07 05:24:53;;;;;;;;;;;;;;;26.77;65.11;96779.03;586656;242;69022;-74
2022/03/07 05:27:20;;;;;;;;;;;;;;;26.73;63.44;96781.55;586671;242;65352;-72
2022/03/07 05:29:48;;;;;;;;;;;;;;;26.75;63.23;96783.94;586631;242;68663;-72
2022/03/07 05:32:15;;;;;;;;;;;;;;;26.75;65.58;96787.42;586715;242;68261;-72
2022/03/07 05:34:43;;;;;;;;;;;;;;;26.71;64.90;96783.78;586676;242;65433;-72
2022/03/07 05:37:10;;;;;;;;;;;;;;;26.73;65.52;96786.14;586647;242;66515;-72
2022/03/07 05:39:38;;;;;;;;;;;;;;;26.72;64.11;96790.75;586657;242;66769;-72
2022/03/07 05:42:05;;;;;;;;;;;;;;;26.74;64.02;96788.54;586655;242;63014;-72
2022/03/07 05:44:33;;;;;;;;;;;;;;;26.73;64.09;96781.55;586704;240;68663;-72
2022/03/07 05:47:00;;;;;;;;;;;;;;;26.73;64.66;96784.23;586616;242;68525;-72
2022/03/07 05:49:28;;;;;;;;;;;;;;;26.72;61.29;96779.97;586671;242;65182;-72
2022/03/07 05:51:55;;;;;;;;;;;;;;;26.74;62.97;96776.97;586657;242;68384;-72
2022/03/07 05:54:23;;;;;;;;;;;;;;;26.74;64.39;96777.76;586646;242;68503;-72
2022/03/07 05:56:50;;;;;;;;;;;;;;;26.75;63.63;96775.85;586725;242;65379;-71
2022/03/07 05:59:18;;;;;;;;;;;;;;;26.75;64.07;96778.55;586677;242;68413;-71
2022/03/07 06:01:45;;;;;;;;;;;;;;;26.76;62.68;96772.86;586644;242;68743;-71
2022/03/07 06:04:13;;;;;;;;;;;;;;;26.77;63.02;96774.43;586547;242;63208;-71
2022/03/07 06:06:40;;;;;;;;;;;;;;;26.77;58.40;96779.83;586648;242;67802;-71
2022/03/07 06:09:08;;;;;;;;;;;;;;;26.80;61.26;96775.70;586712;242;68235;-71
2022/03/07 06:11:35;;;;;;;;;;;;;;;26.82;60.63;96778.07;586690;242;64981;-71
2022/03/07 06:14:03;;;;;;;;;;;;;;;26.81;61.47;96782.67;586662;242;68686;-71
2022/03/07 06:16:30;;;;;;;;;;;;;;;26.82;61.26;96772.68;586648;242;68487;-71
2022/03/07 06:18:58;;;;;;;;;;;;;;;26.82;59.35;96786.98;586670;242;65352;-71
2022/03/07 06:21:25;;;;;;;;;;;;;;;26.83;60.23;96783.16;586699;242;66447;-71
2022/03/07 06:23:53;;;;;;;;;;;;;;;26.84;61.27;96790.13;586668;242;66444;-71
2022/03/07 06:26:20;;;;;;;;;;;;;;;26.85;61.91;96789.04;586639;242;63022;-71
2022/03/07 06:28:48;;;;;;;;;;;;;;;26.84;62.55;96792.83;586606;242;66385;-71
2022/03/07 06:31:15;;;;;;;;;;;;;;;26.86;59.29;96787.13;586580;242;68545;-70
2022/03/07 06:33:43;;;;;;;;;;;;;;;26.86;60.97;96789.83;586656;242;65088;-70
2022/03/07 06:36:10;;;;;;;;;;;;;;;26.88;60.50;96784.92;586633;242;68583;-72
2022/03/07 06:38:39;;;;;;;;;;;;;;;26.89;59.75;96789.20;586626;242;66728;-70
2022/03/07 06:41:07;;;;;;;;;;;;;;;26.90;60.70;96793.47;586631;242;63339;-70
2022/03/07 06:43:35;;;;;;;;;;;;;;;26.90;58.95;96796.98;587509;240;66424;-70
2022/03/07 06:46:03;;;;;;;;;;;;;;;26.89;61.54;96798.08;589288;240;68298;-70
2022/03/07 06:48:33;;;;;;;;;;;;;;;26.90;60.42;96798.86;589462;240;62982;-73
2022/03/07 06:51:00;;;;;;;;;;;;;;;26.90;59.29;96785.37;589312;239;68808;-74
2022/03/07 06:53:29;;;;;;;;;;;;;;;26.92;61.50;96793.95;589393;240;68880;-71
2022/03/07 06:55:57;;;;;;;;;;;;;;;26.91;62.05;96787.77;588749;239;66212;-72
2022/03/07 06:58:24;;;;;;;;;;;;;;;26.87;62.68;96781.41;589421;240;68662;-70
2022/03/07 07:00:52;;;;;;;;;;;;;;;26.84;62.40;96792.83;589278;240;68649;-71
2022/03/07 07:03:19;;;;;;;;;;;;;;;26.85;62.11;96785.55;589025;240;65373;-72
2022/03/07 07:05:47;;;;;;;;;;;;;;;26.88;62.99;96782.23;588804;240;68760;-73
2022/03/07 07:08:14;;;;;;;;;;;;;;;26.87;61.89;96780.62;589275;240;68542;-70
2022/03/07 07:10:41;;;;;;;;;;;;;;;26.88;64.04;96774.92;589255;240;65346;-71
2022/03/07 07:13:14;;;;;;;;;;;;;;;26.89;63.71;96778.41;589367;240;68402;-68
2022/03/07 07:15:38;;;;;;;;;;;;;;;26.89;63.96;96775.72;588400;239;68521;-68
2022/03/07 07:18:06;;;;;;;;;;;;;;;26.89;63.85;96781.89;589280;240;65383;-68
2022/03/07 07:20:33;;;;;;;;;;;;;;;26.90;62.68;96783.50;589363;240;66569;-69
2022/03/07 07:23:02;;;;;;;;;;;;;;;26.91;63.11;96793.17;589311;239;66700;-67
2022/03/07 07:25:30;;;;;;;;;;;;;;;26.92;62.43;96796.66;589367;240;63022;-68
2022/03/07 07:27:57;;;;;;;;;;;;;;;26.94;63.51;96791.75;589300;240;66561;-68
2022/03/07 07:30:25;;;;;;;;;;;;;;;26.95;61.94;96790.63;589289;240;66488;-73
2022/03/07 07:32:52;;;;;;;;;;;;;;;26.92;61.51;96788.56;589357;240;63287;-73
2022/03/07 07:35:20;;;;;;;;;;;;;;;26.93;61.41;96790.17;589337;240;66645;-73
2022/03/07 07:37:48;;;;;;;;;;;;;;;26.95;62.19;96794.11;589158;239;68652;-75
2022/03/07 07:40:16;;;;;;;;;;;;;;;26.97;61.75;96799.98;589218;240;62916;-71
2022/03/07 07:42:43;;;;;;;;;;;;;;;27.01;62.04;96797.48;589158;240;69557;-67
2022/03/07 07:45:12;;;;;;;;;;;;;;;26.99;61.55;96802.39;586385;242;69716;-68
2022/03/07 07:47:40;;;;;;;;;;;;;;;27.03;62.23;96802.54;586539;242;65787;-68
2022/03/07 07:50:08;;;;;;;;;;;;;;;27.04;62.00;96802.23;586497;242;68858;-68
2022/03/07 07:52:36;;;;;;;;;;;;;;;27.06;61.34;96791.12;586518;242;68707;-76
2022/03/07 07:55:06;;;;;;;;;;;;;;;27.00;61.80;96798.56;586441;240;65766;-72
2022/03/07 07:57:34;;;;;;;;;;;;;;;27.00;61.65;96795.88;586611;242;66674;-75
2022/03/07 08:00:02;;;;;;;;;;;;;;;26.99;60.46;96800.48;586508;242;69220;-74
2022/03/07 08:02:31;;;;;;;;;;;;;;;27.01;62.35;96797.48;586919;240;44134;-72
2022/03/07 08:04:58;;;;;;;;;;;;;;;27.00;60.98;96802.05;586562;242;68558;-72
2022/03/07 08:07:27;;;;;;;;;;;;;;;27.02;61.13;96804.45;586478;242;66649;-77
2022/03/07 08:09:55;;;;;;;;;;;;;;;27.04;59.93;96801.42;586539;242;65444;-76
2022/03/07 08:12:22;;;;;;;;;;;;;;;27.06;62.44;96804.60;586569;242;68635;-70
2022/03/07 08:14:50;;;;;;;;;;;;;;;27.07;62.38;96801.60;586534;242;68555;-71
2022/03/07 08:17:17;;;;;;;;;;;;;;;27.09;62.57;96801.27;586615;242;65474;-72
2022/03/07 08:19:45;;;;;;;;;;;;;;;27.09;62.84;96794.00;586590;242;68592;-73
2022/03/07 08:22:12;;;;;;;;;;;;;;;27.11;62.10;96794.45;586521;242;66208;-73
2022/03/07 08:24:41;;;;;;;;;;;;;;;27.14;61.68;96793.81;586516;242;65445;-68
2022/03/07 08:27:08;;;;;;;;;;;;;;;27.14;61.04;96795.72;586570;242;68227;-68
2022/03/07 08:29:36;;;;;;;;;;;;;;;27.14;57.59;96801.12;586606;242;66258;-65
2022/03/07 08:32:03;;;;;;;;;;;;;;;27.13;57.59;96796.84;586560;242;64143;-64
2022/03/07 08:34:31;;;;;;;;;;;;;;;27.15;60.35;96803.52;586527;242;66419;-64
2022/03/07 08:36:59;;;;;;;;;;;;;;;27.19;59.85;96798.30;586596;242;68477;-65
2022/03/07 08:39:29;;;;;;;;;;;;;;;27.20;59.33;96805.27;586634;242;65600;-72
2022/03/07 08:41:57;;;;;;;;;;;;;;;27.22;56.67;96801.16;586570;242;68354;-71
2022/03/07 08:44:25;;;;;;;;;;;;;;;27.29;58.15;96808.00;586457;240;68538;-70
2022/03/07 08:46:52;;;;;;;;;;;;;;;27.33;58.17;96808.94;586571;242;62990;-73
2022/03/07 08:49:20;;;;;;;;;;;;;;;27.35;58.97;96804.81;586525;242;66434;-72
2022/03/07 08:51:47;;;;;;;;;;;;;;;27.38;58.35;96806.87;586587;242;66507;-71
2022/03/07 08:54:15;;;;;;;;;;;;;;;27.40;58.63;96815.45;586616;242;62993;-69
2022/03/07 08:56:42;;;;;;;;;;;;;;;27.41;58.48;96800.84;586482;242;68678;-72
2022/03/07 08:59:10;;;;;;;;;;;;;;;27.43;59.71;96809.41;586612;242;68510;-73
2022/03/07 09:01:37;;;;;;;;;;;;;;;27.45;59.88;96812.59;586596;242;64249;-73
2022/03/07 09:04:05;;;;;;;;;;;;;;;27.47;59.80;96811.48;586530;242;66127;-74
2022/03/07 09:06:32;;;;;;;;;;;;;;;27.49;58.99;96815.45;586681;242;65492;-74
2022/03/07 09:09:00;;;;;;;;;;;;;;;27.50;59.47;96803.56;586595;242;62743;-73
2022/03/07 09:11:27;;;;;;;;;;;;;;;27.51;59.98;96802.44;586563;242;67716;-72
2022/03/07 09:13:55;;;;;;;;;;;;;;;27.54;59.95;96807.19;586657;242;66393;-71
2022/03/07 09:16:22;;;;;;;;;;;;;;;27.55;59.90;96806.06;586601;242;65449;-70
2022/03/07 09:18:50;;;;;;;;;;;;;;;27.57;59.97;96803.85;586585;242;68960;-73
2022/03/07 09:21:17;;;;;;;;;;;;;;;27.58;60.30;96802.75;586552;242;66792;-72
2022/03/07 09:23:46;;;;;;;;;;;;;;;27.59;60.21;96801.63;586617;242;65555;-71
2022/03/07 09:26:14;;;;;;;;;;;;;;;27.60;59.54;96797.02;586510;242;66504;-70
2022/03/07 09:28:43;;;;;;;;;;;;;;;27.62;61.30;96800.98;586636;242;68512;-74
2022/03/07 09:31:11;;;;;;;;;;;;;;;27.61;61.00;96799.41;586586;242;64363;-70
2022/03/07 09:33:40;;;;;;;;;;;;;;;27.63;60.56;96807.18;586653;242;68849;-66
2022/03/07 09:36:09;;;;;;;;;;;;;;;27.62;58.58;96811.79;586555;242;68738;-76
2022/03/07 09:38:37;;;;;;;;;;;;;;;27.64;59.97;96797.98;586624;242;63254;-73
2022/03/07 09:41:06;;;;;;;;;;;;;;;27.65;59.08;96802.27;586619;242;68896;-75
2022/03/07 09:43:33;;;;;;;;;;;;;;;27.65;60.04;96808.45;586582;241;68740;-76
2022/03/07 09:46:01;;;;;;;;;;;;;;;27.65;59.82;96800.34;586545;242;63088;-64
2022/03/07 09:48:28;;;;;;;;;;;;;;;27.67;59.72;96797.34;586596;242;66820;-65
2022/03/07 09:50:56;;;;;;;;;;;;;;;27.65;60.04;96794.95;586643;242;68569;-71
2022/03/07 09:53:24;;;;;;;;;;;;;;;27.65;59.71;96796.86;586549;242;65301;-70
2022/03/07 09:55:51;;;;;;;;;;;;;;;27.65;60.19;96794.16;586592;242;68712;-74
2022/03/07 09:58:19;;;;;;;;;;;;;;;27.64;60.12;96796.08;586606;242;68676;-73
2022/03/07 10:00:47;;;;;;;;;;;;;;;27.66;60.78;96796.55;586596;242;63203;-74
2022/03/07 10:03:15;;;;;;;;;;;;;;;27.66;60.11;96793.86;586610;242;68591;-73
2022/03/07 10:05:44;;;;;;;;;;;;;;;27.66;59.56;96796.55;586560;242;68628;-73
2022/03/07 10:08:14;;;;;;;;;;;;;;;27.67;59.64;96794.64;586528;242;62637;-75
2022/03/07 10:10:42;;;;;;;;;;;;;;;27.68;60.08;96798.92;586492;240;67567;-74
2022/03/07 10:13:11;;;;;;;;;;;;;;;27.68;60.04;96798.92;586624;242;66484;-73
2022/03/07 10:15:39;;;;;;;;;;;;;;;27.68;60.63;96797.01;586368;240;65169;-66
2022/03/07 10:18:08;;;;;;;;;;;;;;;27.68;60.02;96780.02;586572;242;68827;-70
2022/03/07 10:20:36;;;;;;;;;;;;;;;27.67;58.51;96800.83;586598;240;66498;-73
2022/03/07 10:23:03;;;;;;;;;;;;;;;27.67;59.57;96798.13;586563;242;62994;-74
2022/03/07 10:25:33;;;;;;;;;;;;;;;27.69;60.00;96800.49;586645;242;66437;-73
2022/03/07 10:28:01;;;;;;;;;;;;;;;27.68;60.15;96793.52;586618;242;68519;-58
2022/03/07 10:30:30;;;;;;;;;;;;;;;27.70;60.39;96793.21;586596;242;65171;-73
2022/03/07 10:32:59;;;;;;;;;;;;;;;27.68;60.20;96783.51;586562;242;66220;-72
2022/03/07 10:35:28;;;;;;;;;;;;;;;27.68;59.46;96786.20;586539;242;68928;-73
2022/03/07 10:37:57;;;;;;;;;;;;;;;27.66;59.73;96788.45;586570;242;65329;-73
2022/03/07 10:40:25;;;;;;;;;;;;;;;27.67;59.99;96781.14;586653;242;68855;-73
2022/03/07 10:42:54;;;;;;;;;;;;;;;27.66;58.70;96785.75;586500;241;68578;-72
2022/03/07 10:45:23;;;;;;;;;;;;;;;27.67;59.96;96784.63;586583;242;65351;-72
2022/03/07 10:47:52;;;;;;;;;;;;;;;27.67;59.72;96792.73;586561;242;69650;-72
2022/03/07 10:50:21;;;;;;;;;;;;;;;27.67;59.56;96786.55;586508;242;68715;-72
2022/03/07 10:52:48;;;;;;;;;;;;;;;27.66;59.94;96787.64;586664;242;65146;-72
2022/03/07 10:55:17;;;;;;;;;;;;;;;27.65;58.94;96784.15;586515;242;68417;-72
2022/03/07 10:57:45;;;;;;;;;;;;;;;27.65;59.30;96784.15;586470;240;66507;-71
2022/03/07 11:00:14;;;;;;;;;;;;;;;27.66;59.37;96785.75;586563;242;63083;-71
2022/03/07 11:02:42;;;;;;;;;;;;;;;27.67;59.85;96778.45;586596;242;68898;-72
2022/03/07 11:05:10;;;;;;;;;;;;;;;27.66;59.56;96776.84;586550;242;68566;-72
2022/03/07 11:07:39;;;;;;;;;;;;;;;27.67;59.87;96773.83;586579;242;65371;-72
2022/03/07 11:10:08;;;;;;;;;;;;;;;27.63;60.36;96772.08;586551;242;66435;-72
2022/03/07 11:12:36;;;;;;;;;;;;;;;27.59;60.55;96777.34;586538;242;68747;-73
2022/03/07 11:15:18;;;;;;;;;;;;;;;27.57;59.56;96768.77;586584;242;62862;-72
2022/03/07 11:17:36;;;;;;;;;;;;;;;27.56;58.64;96769.89;586365;240;66549;-72
2022/03/07 11:20:03;;;;;;;;;;;;;;;27.54;57.63;96761.30;586548;242;66385;-71
2022/03/07 11:22:32;;;;;;;;;;;;;;;27.52;57.99;96752.73;586583;242;65411;-71
2022/03/07 11:25:00;;;;;;;;;;;;;;;27.52;58.00;96752.73;586544;242;68787;-72
2022/03/07 11:27:28;;;;;;;;;;;;;;;27.49;57.61;96752.58;586558;242;66686;-72
2022/03/07 11:29:56;;;;;;;;;;;;;;;27.49;56.91;96757.98;586613;242;63011;-71
2022/03/07 11:32:23;;;;;;;;;;;;;;;27.48;56.37;96751.80;586561;242;68652;-71
2022/03/07 11:34:58;;;;;;;;;;;;;;;27.48;56.20;96746.40;586556;242;66530;-73
2022/03/07 11:37:30;;;;;;;;;;;;;;;27.47;57.06;96747.49;586585;242;65313;-73
2022/03/07 11:39:58;;;;;;;;;;;;;;;27.47;56.54;96744.80;586548;242;66602;-73
2022/03/07 11:42:36;;;;;;;;;;;;;;;27.45;56.92;96742.43;586583;242;68504;-71
2022/03/07 11:45:06;;;;;;;;;;;;;;;27.47;57.09;96746.70;588189;241;63154;-73
2022/03/07 11:47:38;;;;;;;;;;;;;;;27.45;56.62;96747.05;588259;241;68842;-73
2022/03/07 11:50:06;;;;;;;;;;;;;;;27.45;55.84;96736.25;588234;241;66970;-73
2022/03/07 11:52:33;;;;;;;;;;;;;;;27.44;56.29;96731.95;588273;241;65577;-73
2022/03/07 11:55:02;;;;;;;;;;;;;;;27.44;57.05;96726.55;588152;241;68652;-73
2022/03/07 11:57:34;;;;;;;;;;;;;;;27.46;55.69;96727.02;588254;239;68752;-73
2022/03/07 12:00:19;;;;;;;;;;;;;;;27.46;56.84;96729.73;588315;241;63060;-72
2022/03/07 12:02:48;;;;;;;;;;;;;;;27.45;56.09;96731.64;588260;241;66438;-74
2022/03/07 12:05:23;;;;;;;;;;;;;;;27.46;56.48;96737.82;588204;241;69444;-72
2022/03/07 12:07:51;;;;;;;;;;;;;;;27.45;56.59;96731.64;588262;240;65189;-72
2022/03/07 12:10:19;;;;;;;;;;;;;;;27.45;56.00;96730.84;588122;241;69280;-73
2022/03/07 12:12:46;;;;;;;;;;;;;;;27.47;56.41;96725.11;588272;241;68651;-73
2022/03/07 12:15:15;;;;;;;;;;;;;;;27.45;56.49;96728.15;588263;241;65589;-74
2022/03/07 12:17:44;;;;;;;;;;;;;;;27.46;55.83;96727.02;588329;241;66757;-73
2022/03/07 12:20:12;;;;;;;;;;;;;;;27.43;56.10;96712.27;588135;239;66463;-72
2022/03/07 12:22:41;;;;;;;;;;;;;;;27.44;56.02;96713.05;588194;241;63008;-72
2022/03/07 12:25:09;;;;;;;;;;;;;;;27.44;57.58;96718.45;588291;241;66175;-70
2022/03/07 12:27:41;;;;;;;;;;;;;;;27.43;56.82;96717.66;588316;241;66475;-69
2022/03/07 12:30:10;;;;;;;;;;;;;;;27.44;56.56;96713.05;588297;241;66296;-71
2022/03/07 12:32:42;;;;;;;;;;;;;;;27.48;55.93;96718.63;588343;241;68533;-70
2022/03/07 12:35:10;;;;;;;;;;;;;;;27.48;55.36;96707.83;585640;241;68533;-73
2022/03/07 12:37:37;;;;;;;;;;;;;;;27.49;54.76;96717.50;588109;240;65463;-70
2022/03/07 12:40:10;;;;;;;;;;;;;;;27.49;56.39;96714.80;588335;241;68376;-71
2022/03/07 12:42:42;;;;;;;;;;;;;;;27.51;56.10;96721.47;588376;241;68405;-71
2022/03/07 12:45:10;;;;;;;;;;;;;;;27.52;54.94;96719.55;587868;240;65358;-71
2022/03/07 12:47:39;;;;;;;;;;;;;;;27.52;56.58;96714.16;588297;240;66296;-72
2022/03/07 12:50:09;;;;;;;;;;;;;;;27.53;56.07;96723.83;588260;241;66500;-69
2022/03/07 12:52:38;;;;;;;;;;;;;;;27.51;56.31;96718.77;588256;241;66016;-71